sensor_id;sensor_type;location;lat;lon;timestamp;pressure;altitude;pressure_sealevel;temperature;humidity
53932;BME280;39844;52.496;13.482;2022-11-15T00:00:26;101339.75;;;5.19;100.00
53932;BME280;39844;52.496;13.482;2022-11-15T00:02:52;101333.66;;;5.18;100.00
53932;BME280;39844;52.496;13.482;2022-11-15T00:05:18;101331.88;;;5.17;100.00
53932;BME280;39844;52.496;13.482;2022-11-15T00:07:43;101337.88;;;5.15;100.00
53932;BME280;39844;52.496;13.482;2022-11-15T00:10:09;101340.53;;;5.16;100.00
53932;BME280;39844;52.496;13.482;2022-11-15T00:12:34;101347.53;;;5.19;100.00
53932;BME280;39844;52.496;13.482;2022-11-15T00:14:59;101339.75;;;5.19;100.00
53932;BME280;39844;52.496;13.482;2022-11-15T00:17:25;101331.94;;;5.19;100.00
53932;BME280;39844;52.496;13.482;2022-11-15T00:19:50;101337.97;;;5.18;100.00
53932;BME280;39844;52.496;13.482;2022-11-15T00:22:16;101319.75;;;5.18;100.00
53932;BME280;39844;52.496;13.482;2022-11-15T00:24:41;101321.47;;;5.17;100.00
53932;BME280;39844;52.496;13.482;2022-11-15T00:27:07;101324.03;;;5.16;100.00
53932;BME280;39844;52.496;13.482;2022-11-15T00:29:33;101306.66;;;5.15;100.00
53932;BME280;39844;52.496;13.482;2022-11-15T00:31:58;101316.06;;;5.11;100.00
53932;BME280;39844;52.496;13.482;2022-11-15T00:34:24;101312.56;;;5.09;100.00
53932;BME280;39844;52.496;13.482;2022-11-15T00:36:49;101304.75;;;5.09;100.00
53932;BME280;39844;52.496;13.482;2022-11-15T00:39:14;101309.06;;;5.08;100.00
53932;BME280;39844;52.496;13.482;2022-11-15T00:41:40;101305.63;;;5.08;100.00
53932;BME280;39844;52.496;13.482;2022-11-15T00:44:05;101297.81;;;5.08;100.00
53932;BME280;39844;52.496;13.482;2022-11-15T00:46:30;101296.91;;;5.07;100.00
53932;BME280;39844;52.496;13.482;2022-11-15T00:48:56;101302.06;;;5.06;100.00
53932;BME280;39844;52.496;13.482;2022-11-15T00:51:21;101306.41;;;5.05;100.00
53932;BME280;39844;52.496;13.482;2022-11-15T00:53:47;101290.72;;;5.02;100.00
53932;BME280;39844;52.496;13.482;2022-11-15T00:56:12;101296.81;;;5.03;100.00
53932;BME280;39844;52.496;13.482;2022-11-15T00:58:37;101291.53;;;5.01;100.00
53932;BME280;39844;52.496;13.482;2022-11-15T01:01:10;101291.44;;;4.98;100.00
53932;BME280;39844;52.496;13.482;2022-11-15T01:03:37;101292.31;;;4.97;100.00
53932;BME280;39844;52.496;13.482;2022-11-15T01:06:03;101285.31;;;4.95;100.00
53932;BME280;39844;52.496;13.482;2022-11-15T01:08:29;101295.63;;;4.93;100.00
53932;BME280;39844;52.496;13.482;2022-11-15T01:10:54;101290.44;;;4.93;100.00
53932;BME280;39844;52.496;13.482;2022-11-15T01:13:19;101290.41;;;4.92;100.00
53932;BME280;39844;52.496;13.482;2022-11-15T01:15:45;101292.91;;;4.89;100.00
53932;BME280;39844;52.496;13.482;2022-11-15T01:18:10;101290.28;;;4.87;100.00
53932;BME280;39844;52.496;13.482;2022-11-15T01:20:42;101282.41;;;4.84;100.00
53932;BME280;39844;52.496;13.482;2022-11-15T01:23:07;101291.00;;;4.82;100.00
53932;BME280;39844;52.496;13.482;2022-11-15T01:25:33;101279.72;;;4.81;100.00
53932;BME280;39844;52.496;13.482;2022-11-15T01:27:58;101271.81;;;4.78;100.00
53932;BME280;39844;52.496;13.482;2022-11-15T01:30:23;101274.34;;;4.75;100.00
53932;BME280;39844;52.496;13.482;2022-11-15T01:32:49;101269.06;;;4.72;100.00
53932;BME280;39844;52.496;13.482;2022-11-15T01:35:14;101260.25;;;4.67;100.00
53932;BME280;39844;52.496;13.482;2022-11-15T01:37:40;101256.72;;;4.65;100.00
53932;BME280;39844;52.496;13.482;2022-11-15T01:40:05;101258.38;;;4.63;100.00
53932;BME280;39844;52.496;13.482;2022-11-15T01:42:31;101259.19;;;4.61;100.00
53932;BME280;39844;52.496;13.482;2022-11-15T01:44:56;101261.75;;;4.59;100.00
53932;BME280;39844;52.496;13.482;2022-11-15T01:47:28;101253.88;;;4.58;100.00
53932;BME280;39844;52.496;13.482;2022-11-15T01:50:10;101246.06;;;4.56;100.00
53932;BME280;39844;52.496;13.482;2022-11-15T01:52:37;101233.88;;;4.55;100.00
53932;BME280;39844;52.496;13.482;2022-11-15T01:57:30;101234.66;;;4.51;100.00
53932;BME280;39844;52.496;13.482;2022-11-15T01:59:55;101234.63;;;4.50;100.00
53932;BME280;39844;52.496;13.482;2022-11-15T02:02:23;101233.72;;;4.49;100.00
53932;BME280;39844;52.496;13.482;2022-11-15T02:04:48;101229.34;;;4.48;100.00
53932;BME280;39844;52.496;13.482;2022-11-15T02:07:19;101235.41;;;4.47;100.00
53932;BME280;39844;52.496;13.482;2022-11-15T02:09:45;101220.72;;;4.49;100.00
53932;BME280;39844;52.496;13.482;2022-11-15T02:12:14;101220.72;;;4.49;100.00
53932;BME280;39844;52.496;13.482;2022-11-15T02:14:41;101217.25;;;4.48;100.00
53932;BME280;39844;52.496;13.482;2022-11-15T02:23:41;101213.81;;;4.50;100.00
53932;BME280;39844;52.496;13.482;2022-11-15T02:29:01;101215.47;;;4.47;100.00
53932;BME280;39844;52.496;13.482;2022-11-15T02:39:28;101216.09;;;4.39;100.00
53932;BME280;39844;52.496;13.482;2022-11-15T02:42:14;101220.41;;;4.38;100.00
53932;BME280;39844;52.496;13.482;2022-11-15T02:45:05;101221.22;;;4.36;100.00
53932;BME280;39844;52.496;13.482;2022-11-15T02:47:37;101218.59;;;4.34;100.00
53932;BME280;39844;52.496;13.482;2022-11-15T02:50:13;101209.91;;;4.34;100.00
53932;BME280;39844;52.496;13.482;2022-11-15T02:52:43;101205.53;;;4.33;100.00
53932;BME280;39844;52.496;13.482;2022-11-15T02:55:29;101207.25;;;4.32;100.00
53932;BME280;39844;52.496;13.482;2022-11-15T03:01:06;101205.44;;;4.30;100.00
53932;BME280;39844;52.496;13.482;2022-11-15T03:06:41;101195.03;;;4.30;100.00
53932;BME280;39844;52.496;13.482;2022-11-15T03:09:11;101192.41;;;4.28;100.00
53932;BME280;39844;52.496;13.482;2022-11-15T03:11:47;101188.94;;;4.28;100.00
53932;BME280;39844;52.496;13.482;2022-11-15T03:16:51;101197.63;;;4.30;100.00
53932;BME280;39844;52.496;13.482;2022-11-15T03:19:43;101200.22;;;4.30;100.00
53932;BME280;39844;52.496;13.482;2022-11-15T03:22:12;101194.13;;;4.28;100.00
53932;BME280;39844;52.496;13.482;2022-11-15T03:24:40;101197.59;;;4.28;100.00
53932;BME280;39844;52.496;13.482;2022-11-15T03:27:09;101197.59;;;4.28;100.00
53932;BME280;39844;52.496;13.482;2022-11-15T03:29:39;101199.31;;;4.28;100.00
53932;BME280;39844;52.496;13.482;2022-11-15T03:32:11;101195.84;;;4.27;100.00
53932;BME280;39844;52.496;13.482;2022-11-15T03:37:07;101191.53;;;4.28;100.00
53932;BME280;39844;52.496;13.482;2022-11-15T03:39:33;101193.31;;;4.29;100.00
53932;BME280;39844;52.496;13.482;2022-11-15T03:42:26;101189.81;;;4.28;100.00
53932;BME280;39844;52.496;13.482;2022-11-15T03:45:01;101194.97;;;4.27;100.00
53932;BME280;39844;52.496;13.482;2022-11-15T03:47:34;101198.41;;;4.26;100.00
53932;BME280;39844;52.496;13.482;2022-11-15T03:50:11;101193.19;;;4.26;100.00
53932;BME280;39844;52.496;13.482;2022-11-15T03:52:39;101185.38;;;4.24;100.00
53932;BME280;39844;52.496;13.482;2022-11-15T03:55:07;101186.22;;;4.25;100.00
53932;BME280;39844;52.496;13.482;2022-11-15T03:57:33;101187.09;;;4.24;100.00
53932;BME280;39844;52.496;13.482;2022-11-15T03:59:58;101194.03;;;4.25;100.00
53932;BME280;39844;52.496;13.482;2022-11-15T04:02:24;101180.19;;;4.24;100.00
53932;BME280;39844;52.496;13.482;2022-11-15T04:04:49;101184.59;;;4.27;100.00
53932;BME280;39844;52.496;13.482;2022-11-15T04:07:14;101183.72;;;4.28;100.00
53932;BME280;39844;52.496;13.482;2022-11-15T04:09:40;101177.66;;;4.27;100.00
53932;BME280;39844;52.496;13.482;2022-11-15T04:12:24;101172.50;;;4.29;100.00
53932;BME280;39844;52.496;13.482;2022-11-15T04:15:04;101170.81;;;4.29;100.00
53932;BME280;39844;52.496;13.482;2022-11-15T04:17:36;101175.13;;;4.30;100.00
53932;BME280;39844;52.496;13.482;2022-11-15T04:20:03;101172.59;;;4.32;100.00
53932;BME280;39844;52.496;13.482;2022-11-15T04:22:48;101176.03;;;4.31;100.00
53932;BME280;39844;52.496;13.482;2022-11-15T04:25:33;101169.06;;;4.30;100.00
53932;BME280;39844;52.496;13.482;2022-11-15T04:27:58;101165.63;;;4.31;100.00
53932;BME280;39844;52.496;13.482;2022-11-15T04:30:24;101165.63;;;4.31;100.00
53932;BME280;39844;52.496;13.482;2022-11-15T04:32:49;101163.84;;;4.30;100.00
53932;BME280;39844;52.496;13.482;2022-11-15T04:35:14;101165.53;;;4.28;100.00
53932;BME280;39844;52.496;13.482;2022-11-15T04:37:40;101161.19;;;4.27;100.00
53932;BME280;39844;52.496;13.482;2022-11-15T04:40:06;101158.59;;;4.27;100.00
53932;BME280;39844;52.496;13.482;2022-11-15T04:42:31;101163.81;;;4.27;100.00
53932;BME280;39844;52.496;13.482;2022-11-15T04:44:57;101162.94;;;4.28;100.00
53932;BME280;39844;52.496;13.482;2022-11-15T04:47:22;101162.13;;;4.29;100.00
53932;BME280;39844;52.496;13.482;2022-11-15T04:49:47;101163.00;;;4.29;100.00
53932;BME280;39844;52.496;13.482;2022-11-15T04:52:13;101157.00;;;4.32;100.00
53932;BME280;39844;52.496;13.482;2022-11-15T04:54:38;101154.41;;;4.32;100.00
53932;BME280;39844;52.496;13.482;2022-11-15T04:57:03;101152.66;;;4.32;100.00
53932;BME280;39844;52.496;13.482;2022-11-15T04:59:29;101148.38;;;4.33;100.00
53932;BME280;39844;52.496;13.482;2022-11-15T05:01:54;101153.56;;;4.33;100.00
53932;BME280;39844;52.496;13.482;2022-11-15T05:04:19;101146.56;;;4.30;100.00
53932;BME280;39844;52.496;13.482;2022-11-15T05:06:50;101154.41;;;4.32;100.00
53932;BME280;39844;52.496;13.482;2022-11-15T05:09:18;101150.03;;;4.31;100.00
53932;BME280;39844;52.496;13.482;2022-11-15T05:11:43;101142.16;;;4.28;100.00
53932;BME280;39844;52.496;13.482;2022-11-15T05:14:09;101151.63;;;4.26;100.00
53932;BME280;39844;52.496;13.482;2022-11-15T05:16:35;101153.31;;;4.24;100.00
53932;BME280;39844;52.496;13.482;2022-11-15T05:19:00;101156.75;;;4.23;100.00
53932;BME280;39844;52.496;13.482;2022-11-15T05:21:25;101154.13;;;4.21;100.00
53932;BME280;39844;52.496;13.482;2022-11-15T05:23:51;101144.50;;;4.19;100.00
53932;BME280;39844;52.496;13.482;2022-11-15T05:26:17;101147.94;;;4.18;100.00
53932;BME280;39844;52.496;13.482;2022-11-15T05:28:43;101151.38;;;4.17;100.00
53932;BME280;39844;52.496;13.482;2022-11-15T05:31:11;101147.84;;;4.15;100.00
53932;BME280;39844;52.496;13.482;2022-11-15T05:33:41;101150.41;;;4.13;100.00
53932;BME280;39844;52.496;13.482;2022-11-15T05:36:12;101152.97;;;4.12;100.00
53932;BME280;39844;52.496;13.482;2022-11-15T05:38:39;101151.19;;;4.11;100.00
53932;BME280;39844;52.496;13.482;2022-11-15T05:41:05;101143.38;;;4.09;100.00
53932;BME280;39844;52.496;13.482;2022-11-15T05:43:34;101148.59;;;4.11;100.00
53932;BME280;39844;52.496;13.482;2022-11-15T05:46:02;101157.31;;;4.13;100.00
53932;BME280;39844;52.496;13.482;2022-11-15T05:48:29;101153.03;;;4.15;100.00
53932;BME280;39844;52.496;13.482;2022-11-15T05:50:54;101158.22;;;4.15;100.00
53932;BME280;39844;52.496;13.482;2022-11-15T05:53:21;101158.22;;;4.15;100.00
53932;BME280;39844;52.496;13.482;2022-11-15T05:55:48;101158.16;;;4.12;100.00
53932;BME280;39844;52.496;13.482;2022-11-15T05:58:14;101154.63;;;4.10;100.00
53932;BME280;39844;52.496;13.482;2022-11-15T06:00:40;101158.91;;;4.08;100.00
53932;BME280;39844;52.496;13.482;2022-11-15T06:03:05;101158.91;;;4.08;100.00
53932;BME280;39844;52.496;13.482;2022-11-15T06:05:30;101160.53;;;4.04;100.00
53932;BME280;39844;52.496;13.482;2022-11-15T06:07:59;101159.59;;;4.02;100.00
53932;BME280;39844;52.496;13.482;2022-11-15T06:10:24;101169.19;;;4.05;100.00
53932;BME280;39844;52.496;13.482;2022-11-15T06:13:00;101168.38;;;4.06;100.00
53932;BME280;39844;52.496;13.482;2022-11-15T06:15:26;101164.16;;;4.09;100.00
53932;BME280;39844;52.496;13.482;2022-11-15T06:17:51;101164.22;;;4.12;100.00
53932;BME280;39844;52.496;13.482;2022-11-15T06:20:17;101164.22;;;4.12;100.00
53932;BME280;39844;52.496;13.482;2022-11-15T06:22:42;101171.19;;;4.13;100.00
53932;BME280;39844;52.496;13.482;2022-11-15T06:25:08;101174.78;;;4.17;100.00
53932;BME280;39844;52.496;13.482;2022-11-15T06:27:33;101171.31;;;4.18;100.00
53932;BME280;39844;52.496;13.482;2022-11-15T06:29:59;101175.69;;;4.19;100.00
53932;BME280;39844;52.496;13.482;2022-11-15T06:32:24;101174.94;;;4.23;100.00
53932;BME280;39844;52.496;13.482;2022-11-15T06:34:50;101182.81;;;4.26;100.00
53932;BME280;39844;52.496;13.482;2022-11-15T06:37:15;101169.06;;;4.30;100.00
53932;BME280;39844;52.496;13.482;2022-11-15T06:39:40;101170.91;;;4.34;100.00
53932;BME280;39844;52.496;13.482;2022-11-15T06:42:08;101168.41;;;4.37;100.00
53932;BME280;39844;52.496;13.482;2022-11-15T06:44:33;101172.81;;;4.39;100.00
53932;BME280;39844;52.496;13.482;2022-11-15T06:46:58;101178.03;;;4.41;100.00
53932;BME280;39844;52.496;13.482;2022-11-15T06:49:24;101182.34;;;4.40;100.00
53932;BME280;39844;52.496;13.482;2022-11-15T06:51:49;101183.25;;;4.41;100.00
53932;BME280;39844;52.496;13.482;2022-11-15T06:54:14;101178.88;;;4.40;100.00
53932;BME280;39844;52.496;13.482;2022-11-15T06:56:40;101171.06;;;4.40;100.00
53932;BME280;39844;52.496;13.482;2022-11-15T06:59:05;101171.13;;;4.41;100.00
53932;BME280;39844;52.496;13.482;2022-11-15T07:01:30;101178.97;;;4.43;100.00
53932;BME280;39844;52.496;13.482;2022-11-15T07:03:56;101181.66;;;4.46;100.00
53932;BME280;39844;52.496;13.482;2022-11-15T07:06:21;101182.56;;;4.48;100.00
53932;BME280;39844;52.496;13.482;2022-11-15T07:08:46;101188.78;;;4.53;100.00
53932;BME280;39844;52.496;13.482;2022-11-15T07:11:12;101185.34;;;4.54;100.00
53932;BME280;39844;52.496;13.482;2022-11-15T07:13:37;101177.59;;;4.56;100.00
53932;BME280;39844;52.496;13.482;2022-11-15T07:16:08;101191.56;;;4.59;100.00
53932;BME280;39844;52.496;13.482;2022-11-15T07:18:35;101197.66;;;4.61;100.00
53932;BME280;39844;52.496;13.482;2022-11-15T07:21:02;101195.16;;;4.64;100.00
53932;BME280;39844;52.496;13.482;2022-11-15T07:23:28;101189.13;;;4.65;100.00
53932;BME280;39844;52.496;13.482;2022-11-15T07:25:53;101196.16;;;4.69;100.00
53932;BME280;39844;52.496;13.482;2022-11-15T07:28:21;101198.84;;;4.72;100.00
53932;BME280;39844;52.496;13.482;2022-11-15T07:30:46;101196.34;;;4.75;100.00
53932;BME280;39844;52.496;13.482;2022-11-15T07:33:11;101196.41;;;4.78;100.00
53932;BME280;39844;52.496;13.482;2022-11-15T07:35:36;101199.94;;;4.80;100.00
53932;BME280;39844;52.496;13.482;2022-11-15T07:38:03;101200.88;;;4.84;100.00
53932;BME280;39844;52.496;13.482;2022-11-15T07:40:30;101198.38;;;4.87;100.00
53932;BME280;39844;52.496;13.482;2022-11-15T07:43:05;101201.94;;;4.90;100.00
53932;BME280;39844;52.496;13.482;2022-11-15T07:45:31;101197.69;;;4.94;100.00
53932;BME280;39844;52.496;13.482;2022-11-15T07:47:58;101199.56;;;4.98;100.00
53932;BME280;39844;52.496;13.482;2022-11-15T07:50:24;101192.69;;;5.01;100.00
53932;BME280;39844;52.496;13.482;2022-11-15T07:52:54;101188.47;;;5.06;100.00
53932;BME280;39844;52.496;13.482;2022-11-15T07:55:20;101185.97;;;5.09;100.00
53932;BME280;39844;52.496;13.482;2022-11-15T07:57:45;101187.84;;;5.15;100.00
53932;BME280;39844;52.496;13.482;2022-11-15T08:00:11;101188.00;;;5.21;100.00
53932;BME280;39844;52.496;13.482;2022-11-15T08:02:36;101182.94;;;5.27;100.00
53932;BME280;39844;52.496;13.482;2022-11-15T08:05:02;101183.91;;;5.31;100.00
53932;BME280;39844;52.496;13.482;2022-11-15T08:07:31;101178.81;;;5.35;100.00
53932;BME280;39844;52.496;13.482;2022-11-15T08:09:57;101183.22;;;5.39;100.00
53932;BME280;39844;52.496;13.482;2022-11-15T08:12:22;101166.00;;;5.44;100.00
53932;BME280;39844;52.496;13.482;2022-11-15T08:14:49;101168.75;;;5.50;100.00
53932;BME280;39844;52.496;13.482;2022-11-15T08:17:14;101171.47;;;5.55;100.00
53932;BME280;39844;52.496;13.482;2022-11-15T08:19:39;101169.00;;;5.61;100.00
53932;BME280;39844;52.496;13.482;2022-11-15T08:22:05;101173.50;;;5.68;100.00
53932;BME280;39844;52.496;13.482;2022-11-15T08:24:30;101170.16;;;5.73;100.00
53932;BME280;39844;52.496;13.482;2022-11-15T08:26:56;101165.13;;;5.81;100.00
53932;BME280;39844;52.496;13.482;2022-11-15T08:29:21;101161.91;;;5.90;100.00
53932;BME280;39844;52.496;13.482;2022-11-15T08:31:46;101166.34;;;5.95;100.00
53932;BME280;39844;52.496;13.482;2022-11-15T08:34:12;101173.47;;;6.02;100.00
53932;BME280;39844;52.496;13.482;2022-11-15T08:36:37;101169.22;;;6.07;100.00
53932;BME280;39844;52.496;13.482;2022-11-15T08:39:02;101172.81;;;6.12;100.00
53932;BME280;39844;52.496;13.482;2022-11-15T08:41:32;101168.59;;;6.20;100.00
53932;BME280;39844;52.496;13.482;2022-11-15T08:43:58;101169.63;;;6.27;100.00
53932;BME280;39844;52.496;13.482;2022-11-15T08:46:24;101165.41;;;6.33;100.00
53932;BME280;39844;52.496;13.482;2022-11-15T08:48:49;101160.31;;;6.40;100.00
53932;BME280;39844;52.496;13.482;2022-11-15T08:51:15;101155.25;;;6.46;100.00
53932;BME280;39844;52.496;13.482;2022-11-15T08:53:40;101165.78;;;6.52;100.00
53932;BME280;39844;52.496;13.482;2022-11-15T08:56:07;101160.69;;;6.58;100.00
53932;BME280;39844;52.496;13.482;2022-11-15T08:58:34;101177.31;;;6.64;100.00
53932;BME280;39844;52.496;13.482;2022-11-15T09:00:59;101162.69;;;6.71;100.00
53932;BME280;39844;52.496;13.482;2022-11-15T09:03:24;101161.06;;;6.77;100.00
53932;BME280;39844;52.496;13.482;2022-11-15T09:05:54;101171.63;;;6.83;100.00
53932;BME280;39844;52.496;13.482;2022-11-15T09:08:20;101169.97;;;6.90;100.00
53932;BME280;39844;52.496;13.482;2022-11-15T09:10:45;101175.31;;;6.96;100.00
53932;BME280;39844;52.496;13.482;2022-11-15T09:13:11;101177.19;;;7.03;100.00
53932;BME280;39844;52.496;13.482;2022-11-15T09:15:36;101166.84;;;7.09;100.00
53932;BME280;39844;52.496;13.482;2022-11-15T09:18:02;101166.09;;;7.16;100.00
53932;BME280;39844;52.496;13.482;2022-11-15T09:20:27;101164.44;;;7.21;100.00
53932;BME280;39844;52.496;13.482;2022-11-15T09:22:52;101171.50;;;7.27;100.00
53932;BME280;39844;52.496;13.482;2022-11-15T09:25:18;101158.56;;;7.34;100.00
53932;BME280;39844;52.496;13.482;2022-11-15T09:27:43;101145.59;;;7.40;100.00
53932;BME280;39844;52.496;13.482;2022-11-15T09:30:09;101143.97;;;7.47;100.00
53932;BME280;39844;52.496;13.482;2022-11-15T09:32:34;101142.31;;;7.52;100.00
53932;BME280;39844;52.496;13.482;2022-11-15T09:35:00;101151.13;;;7.60;100.00
53932;BME280;39844;52.496;13.482;2022-11-15T09:37:26;101155.56;;;7.65;100.00
53932;BME280;39844;52.496;13.482;2022-11-15T09:39:51;101152.19;;;7.73;100.00
53932;BME280;39844;52.496;13.482;2022-11-15T09:50:42;101156.91;;;8.01;100.00
53932;BME280;39844;52.496;13.482;2022-11-15T09:53:14;101160.50;;;8.09;100.00
53932;BME280;39844;52.496;13.482;2022-11-15T10:04:21;101148.81;;;8.47;100.00
53932;BME280;39844;52.496;13.482;2022-11-15T10:06:54;101141.94;;;8.55;99.93
53932;BME280;39844;52.496;13.482;2022-11-15T10:09:31;101138.53;;;8.62;99.73
53932;BME280;39844;52.496;13.482;2022-11-15T10:11:59;101131.59;;;8.66;99.00
53932;BME280;39844;52.496;13.482;2022-11-15T10:14:27;101123.81;;;8.73;99.15
53932;BME280;39844;52.496;13.482;2022-11-15T10:25:13;101113.63;;;9.04;96.43
53932;BME280;39844;52.496;13.482;2022-11-15T10:27:41;101106.69;;;9.09;95.58
53932;BME280;39844;52.496;13.482;2022-11-15T10:30:18;101097.13;;;9.14;94.57
53932;BME280;39844;52.496;13.482;2022-11-15T10:32:45;101087.56;;;9.19;94.62
53932;BME280;39844;52.496;13.482;2022-11-15T10:35:29;101087.59;;;9.25;94.12
53932;BME280;39844;52.496;13.482;2022-11-15T10:38:06;101089.41;;;9.32;93.33
53932;BME280;39844;52.496;13.482;2022-11-15T10:40:33;101083.34;;;9.37;92.82
53932;BME280;39844;52.496;13.482;2022-11-15T10:43:13;101075.50;;;9.42;92.23
53932;BME280;39844;52.496;13.482;2022-11-15T10:45:39;101080.78;;;9.48;92.43
53932;BME280;39844;52.496;13.482;2022-11-15T10:53:17;101065.19;;;9.72;91.16
53932;BME280;39844;52.496;13.482;2022-11-15T10:55:50;101048.63;;;9.76;89.86
53932;BME280;39844;52.496;13.482;2022-11-15T10:58:38;101054.75;;;9.81;89.30
53932;BME280;39844;52.496;13.482;2022-11-15T11:01:16;101050.41;;;9.88;88.74
53932;BME280;39844;52.496;13.482;2022-11-15T11:03:43;101056.53;;;9.94;88.43
53932;BME280;39844;52.496;13.482;2022-11-15T11:06:15;101053.09;;;10.01;88.05
53932;BME280;39844;52.496;13.482;2022-11-15T11:08:54;101046.97;;;10.07;87.27
53932;BME280;39844;52.496;13.482;2022-11-15T11:11:20;101048.75;;;10.11;86.56
53932;BME280;39844;52.496;13.482;2022-11-15T11:13:45;101037.41;;;10.15;85.69
53932;BME280;39844;52.496;13.482;2022-11-15T11:18:50;101021.69;;;10.26;85.43
53932;BME280;39844;52.496;13.482;2022-11-15T11:21:25;101026.97;;;10.32;85.50
53932;BME280;39844;52.496;13.482;2022-11-15T11:24:06;101027.88;;;10.40;85.58
53932;BME280;39844;52.496;13.482;2022-11-15T11:26:46;101024.34;;;10.45;85.04
53932;BME280;39844;52.496;13.482;2022-11-15T11:29:50;101015.59;;;10.51;84.50
53932;BME280;39844;52.496;13.482;2022-11-15T11:37:49;101020.88;;;10.70;83.13
53932;BME280;39844;52.496;13.482;2022-11-15T11:43:16;101014.72;;;10.80;82.97
53932;BME280;39844;52.496;13.482;2022-11-15T11:48:47;101016.38;;;11.56;84.50
53932;BME280;39844;52.496;13.482;2022-11-15T11:51:40;101000.00;;;14.21;72.60
53932;BME280;39844;52.496;13.482;2022-11-15T11:54:14;100986.91;;;16.46;64.03
53932;BME280;39844;52.496;13.482;2022-11-15T11:56:44;100980.47;;;17.88;56.43
53932;BME280;39844;52.496;13.482;2022-11-15T12:01:45;100986.88;;;19.44;51.10
53932;BME280;39844;52.496;13.482;2022-11-15T12:04:19;100979.19;;;19.60;49.61
53932;BME280;39844;52.496;13.482;2022-11-15T12:09:42;100973.69;;;18.89;49.11
53932;BME280;39844;52.496;13.482;2022-11-15T12:12:15;100972.22;;;18.26;51.10
53932;BME280;39844;52.496;13.482;2022-11-15T12:15:03;100962.47;;;17.68;53.09
53932;BME280;39844;52.496;13.482;2022-11-15T12:17:31;100964.91;;;17.13;54.57
53932;BME280;39844;52.496;13.482;2022-11-15T12:20:04;100962.53;;;16.69;55.90
53932;BME280;39844;52.496;13.482;2022-11-15T12:25:27;100959.31;;;15.79;58.56
53932;BME280;39844;52.496;13.482;2022-11-15T12:31:02;100954.69;;;15.00;61.66
53932;BME280;39844;52.496;13.482;2022-11-15T12:36:10;100955.50;;;14.55;63.77
53932;BME280;39844;52.496;13.482;2022-11-15T12:39:01;100947.03;;;14.35;64.85
53932;BME280;39844;52.496;13.482;2022-11-15T12:41:33;100947.25;;;14.17;65.74
53932;BME280;39844;52.496;13.482;2022-11-15T12:43:59;100949.22;;;14.06;65.76
53932;BME280;39844;52.496;13.482;2022-11-15T12:49:01;100938.88;;;13.90;66.13
53932;BME280;39844;52.496;13.482;2022-11-15T12:59:54;100931.41;;;13.57;68.60
53932;BME280;39844;52.496;13.482;2022-11-15T13:02:26;100919.16;;;13.50;69.15
53932;BME280;39844;52.496;13.482;2022-11-15T13:04:55;100921.06;;;13.42;69.56
53932;BME280;39844;52.496;13.482;2022-11-15T13:17:51;100916.91;;;13.20;70.35
53932;BME280;39844;52.496;13.482;2022-11-15T13:20:20;100918.69;;;13.18;69.93
53932;BME280;39844;52.496;13.482;2022-11-15T13:23:07;100913.47;;;13.16;70.38
53932;BME280;39844;52.496;13.482;2022-11-15T13:25:48;100913.47;;;13.13;70.17
53932;BME280;39844;52.496;13.482;2022-11-15T13:33:17;100900.31;;;13.13;70.53
53932;BME280;39844;52.496;13.482;2022-11-15T13:35:46;100898.56;;;13.11;70.47
53932;BME280;39844;52.496;13.482;2022-11-15T13:40:51;100900.31;;;13.12;70.64
53932;BME280;39844;52.496;13.482;2022-11-15T13:43:27;100896.81;;;13.10;70.85
53932;BME280;39844;52.496;13.482;2022-11-15T13:46:09;100900.38;;;13.09;70.82
53932;BME280;39844;52.496;13.482;2022-11-15T13:48:35;100910.00;;;13.10;70.80
53932;BME280;39844;52.496;13.482;2022-11-15T13:51:03;100909.16;;;13.08;70.66
53932;BME280;39844;52.496;13.482;2022-11-15T13:53:32;100904.75;;;13.07;70.60
53932;BME280;39844;52.496;13.482;2022-11-15T13:55:58;100903.91;;;13.06;70.53
53932;BME280;39844;52.496;13.482;2022-11-15T13:58:24;100900.38;;;13.03;70.62
53932;BME280;39844;52.496;13.482;2022-11-15T14:01:02;100902.19;;;12.98;71.35
53932;BME280;39844;52.496;13.482;2022-11-15T14:03:30;100895.22;;;12.92;71.10
53932;BME280;39844;52.496;13.482;2022-11-15T14:08:34;100900.56;;;12.88;71.06
53932;BME280;39844;52.496;13.482;2022-11-15T14:11:26;100904.97;;;12.86;71.13
53932;BME280;39844;52.496;13.482;2022-11-15T14:16:56;100907.66;;;12.80;71.69
53932;BME280;39844;52.496;13.482;2022-11-15T14:24:34;100916.50;;;12.76;71.56
53932;BME280;39844;52.496;13.482;2022-11-15T14:27:24;100917.38;;;12.72;71.76
53932;BME280;39844;52.496;13.482;2022-11-15T14:29:50;100920.09;;;12.65;72.49
53932;BME280;39844;52.496;13.482;2022-11-15T14:34:42;100908.81;;;12.51;73.08
53932;BME280;39844;52.496;13.482;2022-11-15T14:37:28;100907.13;;;12.44;73.77
53932;BME280;39844;52.496;13.482;2022-11-15T14:39:54;100901.94;;;12.35;74.46
53932;BME280;39844;52.496;13.482;2022-11-15T14:42:21;100891.47;;;12.28;75.02
53932;BME280;39844;52.496;13.482;2022-11-15T14:44:47;100895.00;;;12.25;75.41
53932;BME280;39844;52.496;13.482;2022-11-15T14:47:13;100895.94;;;12.20;75.30
53932;BME280;39844;52.496;13.482;2022-11-15T14:49:39;100888.97;;;12.13;76.03
53932;BME280;39844;52.496;13.482;2022-11-15T14:52:33;100896.00;;;12.09;76.21
53932;BME280;39844;52.496;13.482;2022-11-15T14:55:01;100889.03;;;12.03;76.40
53932;BME280;39844;52.496;13.482;2022-11-15T14:57:27;100890.84;;;11.97;76.71
53932;BME280;39844;52.496;13.482;2022-11-15T14:59:53;100877.72;;;11.91;77.27